Blawenburg, New Jersey
Current Conditions -  °F | °C
As of 12:53 AM on Wednesday 26 Nov 2014 (Local Time) from KTTN Reporting Station
Clear Clear  
Wind Chill:   Ceiling: Unl
Heat Index:   Visibility: 10mi
Dew Point: -1°   Wind: 3mph
Humidity: 60%   Direction: 330°NNW
Pressure: 30.16"   Gusts: NA
Location:  40.41°N, 74.7°W
Report Text: KTTN 260553Z AUTO 33003KT 10SM CLR 07/M01 A3016 RMK AO2 SLP207 T00671006 10089 20061 51005
Loading
Personal Weather Stations






























Interactive Weather Map New forecast layout! Learn more

10-Day Weather Forecast

Advertisements
Track Severe Weather on mobile